Time;durP1;ratioP1;P1;durP2;ratioP2;P2;SDS_P1;SDS_P2;PMS_P1;PMS_P2;Temp;Humidity;BMP_temperature;BMP_pressure;BME280_temperature;BME280_humidity;BME280_pressure;Samples;Min_cycle;Max_cycle;Signal;HPM_P1;HPM_P2
2021/08/25 17:48:53;;;;;;;6.22;3.40;;;16.60;99.90;;;;;;6135232;23;20041;-96
2021/08/25 17:51:45;;;;;;;7.70;3.35;;;16.60;99.90;;;;;;6088428;23;20021;-96
2021/08/25 17:54:12;;;;;;;4.30;2.65;;;16.60;99.90;;;;;;6024720;23;20045;-96
2021/08/25 17:59:29;;;;;;;5.93;3.08;;;16.60;99.90;;;;;;6115154;23;20077;-76
2021/08/25 18:01:56;;;;;;;7.43;2.90;;;16.60;99.90;;;;;;6061632;23;20022;-75
2021/08/25 18:04:23;;;;;;;6.93;3.10;;;16.50;99.90;;;;;;6087931;23;20576;-75
2021/08/25 18:06:50;;;;;;;7.82;3.50;;;16.60;99.90;;;;;;6085585;23;20512;-75
2021/08/25 18:09:16;;;;;;;7.65;2.85;;;16.50;99.90;;;;;;6063265;23;20026;-76
2021/08/25 18:11:43;;;;;;;7.38;3.10;;;16.50;99.90;;;;;;6064183;23;20049;-75
2021/08/25 18:14:10;;;;;;;6.93;3.08;;;16.50;99.90;;;;;;6087721;23;20026;-76
2021/08/25 18:16:36;;;;;;;5.75;3.78;;;16.50;99.90;;;;;;6087693;23;20101;-75
2021/08/25 18:19:02;;;;;;;5.45;3.13;;;16.50;99.90;;;;;;6087132;23;20485;-75
2021/08/25 18:21:29;;;;;;;9.82;3.03;;;16.40;99.90;;;;;;6039542;23;20036;-75
2021/08/25 18:23:58;;;;;;;6.60;4.00;;;16.40;99.90;;;;;;6063474;23;20054;-75
2021/08/25 18:26:26;;;;;;;8.60;4.22;;;16.40;99.90;;;;;;6088173;23;20061;-74
2021/08/25 18:28:55;;;;;;;6.65;4.00;;;16.40;99.90;;;;;;6059211;23;20500;-75
2021/08/25 18:31:21;;;;;;;7.10;3.80;;;16.30;99.90;;;;;;6086722;23;20037;-75
2021/08/25 18:33:47;;;;;;;9.93;4.65;;;16.30;99.90;;;;;;6083115;23;20053;-74
2021/08/25 18:36:13;;;;;;;6.18;4.15;;;16.30;99.90;;;;;;6085767;23;20692;-75
2021/08/25 18:38:39;;;;;;;6.60;3.75;;;16.30;99.90;;;;;;6085920;23;20022;-74
2021/08/25 18:41:05;;;;;;;7.75;3.97;;;16.30;99.90;;;;;;6061904;23;20021;-74
2021/08/25 18:43:31;;;;;;;8.00;3.75;;;16.30;99.90;;;;;;6062641;23;20030;-73
2021/08/25 18:45:57;;;;;;;9.32;4.30;;;16.30;99.90;;;;;;6056113;23;20528;-73
2021/08/25 18:48:23;;;;;;;11.88;4.10;;;16.30;99.90;;;;;;6061751;23;20339;-73
2021/08/25 18:50:49;;;;;;;6.53;3.75;;;16.30;99.90;;;;;;6063452;23;20030;-73
2021/08/25 18:53:19;;;;;;;7.47;3.97;;;16.20;99.90;;;;;;6086070;23;20306;-73
2021/08/25 18:55:45;;;;;;;9.30;4.43;;;16.30;99.90;;;;;;6087961;23;20029;-73
2021/08/25 18:58:11;;;;;;;7.75;3.80;;;16.30;99.90;;;;;;6087640;23;20022;-73
2021/08/25 19:00:37;;;;;;;8.20;4.55;;;16.20;99.90;;;;;;6088719;23;20022;-73
2021/08/25 19:03:04;;;;;;;8.38;3.88;;;16.20;99.90;;;;;;6085469;23;20474;-73
2021/08/25 19:05:30;;;;;;;6.95;4.65;;;16.20;99.90;;;;;;6037942;23;20022;-73
2021/08/25 19:07:55;;;;;;;7.57;4.38;;;16.20;99.90;;;;;;6061928;23;20022;-73
2021/08/25 19:10:23;;;;;;;8.98;4.57;;;16.20;99.90;;;;;;6064075;23;20029;-73
2021/08/25 19:12:49;;;;;;;8.68;4.78;;;16.20;99.90;;;;;;6062893;23;20490;-73
2021/08/25 19:15:15;;;;;;;8.70;4.55;;;16.20;99.90;;;;;;6085404;23;20391;-73
2021/08/25 19:17:40;;;;;;;9.27;4.43;;;16.20;99.90;;;;;;6063106;23;20061;-73
2021/08/25 19:20:08;;;;;;;9.95;4.47;;;16.20;99.90;;;;;;6085181;23;20022;-73
2021/08/25 19:22:34;;;;;;;8.75;5.03;;;16.20;99.90;;;;;;6086255;23;20022;-73
2021/08/25 19:25:00;;;;;;;10.80;4.68;;;16.20;99.90;;;;;;6062730;23;20018;-73
2021/08/25 19:27:25;;;;;;;8.02;4.88;;;16.20;99.90;;;;;;6064288;23;20237;-73
2021/08/25 19:29:51;;;;;;;8.60;4.22;;;16.20;99.90;;;;;;6062979;23;20033;-73
2021/08/25 19:32:17;;;;;;;9.73;4.07;;;16.20;99.90;;;;;;6059492;23;20216;-73
2021/08/25 19:34:43;;;;;;;10.32;3.88;;;16.20;99.90;;;;;;6063012;23;20409;-73
2021/08/25 19:37:08;;;;;;;6.80;3.47;;;16.20;99.90;;;;;;6061424;23;20030;-73
2021/08/25 19:39:34;;;;;;;6.40;3.13;;;16.20;99.90;;;;;;6064511;23;20032;-74
2021/08/25 19:42:02;;;;;;;7.47;4.22;;;16.20;99.90;;;;;;6081143;23;20524;-73
2021/08/25 19:44:28;;;;;;;6.75;3.42;;;16.20;99.90;;;;;;6089350;23;20048;-74
2021/08/25 19:46:53;;;;;;;7.45;3.45;;;16.20;99.90;;;;;;6062398;23;20497;-74
2021/08/25 19:49:19;;;;;;;4.97;3.03;;;16.20;99.90;;;;;;6081693;23;20026;-73
2021/08/25 19:51:45;;;;;;;6.50;3.08;;;16.20;99.90;;;;;;6086633;23;20096;-73
2021/08/25 19:54:11;;;;;;;5.07;3.63;;;16.20;99.90;;;;;;6084140;23;20022;-73
2021/08/25 19:56:37;;;;;;;5.32;3.20;;;16.20;99.90;;;;;;6065188;23;20080;-73
2021/08/25 19:59:02;;;;;;;6.38;3.33;;;16.20;99.90;;;;;;6041477;23;20022;-73
2021/08/25 20:01:29;;;;;;;5.32;3.05;;;16.20;99.90;;;;;;6064063;23;20321;-73
2021/08/25 20:03:55;;;;;;;5.75;3.10;;;16.20;99.90;;;;;;6064325;23;20026;-73
2021/08/25 20:06:21;;;;;;;7.18;2.85;;;16.30;99.90;;;;;;6061896;23;20045;-73
2021/08/25 20:08:46;;;;;;;6.53;2.83;;;16.20;99.90;;;;;;6088247;23;20029;-73
2021/08/25 20:11:12;;;;;;;5.38;2.78;;;16.30;99.90;;;;;;6085818;23;20037;-73
2021/08/25 20:13:38;;;;;;;5.38;2.47;;;16.20;99.90;;;;;;6064180;23;20022;-73
2021/08/25 20:16:04;;;;;;;5.60;2.30;;;16.20;99.90;;;;;;6065052;23;20077;-72
2021/08/25 20:18:29;;;;;;;5.13;2.38;;;16.20;99.90;;;;;;6089247;23;20058;-72
2021/08/25 20:20:55;;;;;;;5.90;2.25;;;16.20;99.90;;;;;;6083458;23;20022;-73
2021/08/25 20:23:21;;;;;;;7.90;2.45;;;16.30;99.90;;;;;;6087792;23;20473;-74
2021/08/25 20:25:47;;;;;;;5.85;2.40;;;16.30;99.90;;;;;;6084349;23;20068;-74
2021/08/25 20:28:13;;;;;;;6.53;1.80;;;16.30;99.90;;;;;;6084937;23;20188;-73
2021/08/25 20:30:39;;;;;;;4.03;1.70;;;16.30;99.90;;;;;;6087883;23;20018;-73
2021/08/25 20:33:04;;;;;;;4.90;1.30;;;16.30;99.90;;;;;;6064438;23;20054;-74
2021/08/25 20:35:30;;;;;;;5.80;1.50;;;16.30;99.90;;;;;;6088548;23;20311;-73
2021/08/25 20:37:56;;;;;;;5.75;1.50;;;16.30;99.90;;;;;;6084489;23;20034;-73
2021/08/25 20:40:22;;;;;;;5.40;1.60;;;16.20;99.90;;;;;;6065253;23;20026;-74
2021/08/25 20:42:48;;;;;;;3.67;1.65;;;16.20;99.90;;;;;;6036033;23;20343;-74
2021/08/25 20:45:14;;;;;;;3.90;1.40;;;16.20;99.90;;;;;;6084131;23;20564;-74
2021/08/25 20:47:40;;;;;;;4.97;1.60;;;16.20;99.90;;;;;;6062720;23;20351;-74
2021/08/25 20:50:08;;;;;;;7.53;1.70;;;16.20;99.90;;;;;;6063777;23;20018;-74
2021/08/25 20:52:34;;;;;;;5.10;1.52;;;16.20;99.90;;;;;;6063006;23;20022;-74
2021/08/25 20:55:01;;;;;;;5.95;1.92;;;16.10;99.90;;;;;;6062676;23;20472;-74
2021/08/25 20:57:27;;;;;;;10.32;2.05;;;16.10;99.90;;;;;;6084806;23;20060;-74
2021/08/25 20:59:52;;;;;;;6.63;2.30;;;16.10;99.90;;;;;;6083864;23;20033;-74
2021/08/25 21:02:19;;;;;;;7.28;1.83;;;16.10;99.90;;;;;;6063856;23;20081;-74
2021/08/25 21:04:45;;;;;;;4.35;1.77;;;16.00;99.90;;;;;;6033097;23;20022;-73
2021/08/25 21:07:10;;;;;;;5.50;1.98;;;16.00;99.90;;;;;;6088170;23;20132;-74
2021/08/25 21:09:36;;;;;;;5.40;1.80;;;16.10;99.90;;;;;;6064159;23;20049;-74
2021/08/25 21:12:03;;;;;;;7.80;2.15;;;16.10;99.90;;;;;;6060761;23;20030;-73
2021/08/25 21:14:32;;;;;;;6.38;2.00;;;16.10;99.90;;;;;;6062694;23;20022;-74
2021/08/25 21:16:58;;;;;;;9.15;2.28;;;16.00;99.90;;;;;;6041203;23;20379;-74
2021/08/25 21:19:24;;;;;;;7.45;2.72;;;16.00;99.90;;;;;;6087013;23;20029;-74
2021/08/25 21:21:50;;;;;;;7.60;2.25;;;16.00;99.90;;;;;;6062330;23;20053;-75
2021/08/25 21:24:17;;;;;;;7.15;2.28;;;16.00;99.90;;;;;;6060281;23;20398;-75
2021/08/25 21:26:42;;;;;;;9.27;2.50;;;16.00;99.90;;;;;;6062284;23;20092;-75
2021/08/25 21:29:08;;;;;;;6.28;1.88;;;16.00;99.90;;;;;;6088801;23;20022;-75
2021/08/25 21:31:34;;;;;;;11.27;2.38;;;16.00;99.90;;;;;;6087401;23;20022;-75
2021/08/25 21:34:03;;;;;;;8.55;2.78;;;16.00;99.90;;;;;;6088730;23;20096;-75
2021/08/25 21:36:32;;;;;;;6.70;2.20;;;16.00;99.90;;;;;;6064059;23;20752;-74
2021/08/25 21:38:58;;;;;;;8.73;2.70;;;16.00;99.90;;;;;;6062056;23;20026;-75
2021/08/25 21:41:24;;;;;;;11.30;2.88;;;16.00;99.90;;;;;;6089868;23;20026;-74
2021/08/25 21:43:50;;;;;;;8.82;2.38;;;16.00;99.90;;;;;;6065813;23;20032;-75
2021/08/25 21:46:16;;;;;;;7.00;2.05;;;16.00;99.90;;;;;;6065087;23;20494;-75
2021/08/25 21:48:41;;;;;;;8.10;2.55;;;15.90;99.90;;;;;;6063313;23;20022;-74
2021/08/25 21:51:07;;;;;;;9.63;2.65;;;16.00;99.90;;;;;;6089821;23;20026;-75
2021/08/25 21:53:36;;;;;;;8.57;2.28;;;15.90;99.90;;;;;;6064013;23;20026;-74
2021/08/25 21:56:02;;;;;;;9.93;2.83;;;15.90;99.90;;;;;;6088323;23;20033;-75
2021/08/25 21:58:28;;;;;;;9.75;3.35;;;15.90;99.90;;;;;;6063574;23;20354;-75
2021/08/25 22:00:55;;;;;;;13.63;3.42;;;15.90;99.90;;;;;;6087574;23;20469;-72
2021/08/25 22:03:24;;;;;;;10.35;3.20;;;15.80;99.90;;;;;;6089256;23;20535;-73
2021/08/25 22:05:49;;;;;;;15.35;3.70;;;15.80;99.90;;;;;;6086789;23;20187;-72
2021/08/25 22:08:15;;;;;;;10.80;3.03;;;15.80;99.90;;;;;;6089441;23;20325;-72
2021/08/25 22:10:41;;;;;;;11.45;3.05;;;15.80;99.90;;;;;;6064032;23;20068;-72
2021/08/25 22:13:07;;;;;;;10.13;3.22;;;15.80;99.90;;;;;;6062137;23;20022;-72
2021/08/25 22:15:35;;;;;;;12.30;3.72;;;15.80;99.90;;;;;;6061376;23;20033;-72
2021/08/25 22:18:01;;;;;;;10.82;4.40;;;15.70;99.90;;;;;;6063683;23;20072;-73
2021/08/25 22:20:27;;;;;;;13.98;3.83;;;15.70;99.90;;;;;;6084943;23;20061;-72
2021/08/25 22:22:53;;;;;;;13.40;3.92;;;15.70;99.90;;;;;;6061004;23;20218;-72
2021/08/25 22:25:25;;;;;;;9.05;3.78;;;15.70;99.90;;;;;;6059334;23;20553;-72
2021/08/25 22:27:50;;;;;;;14.15;4.10;;;15.70;99.90;;;;;;6063757;23;20022;-71
2021/08/25 22:30:16;;;;;;;10.25;3.65;;;15.70;99.90;;;;;;6087927;23;20032;-71
2021/08/25 22:32:42;;;;;;;10.40;4.03;;;15.70;99.90;;;;;;6085037;23;20064;-71
2021/08/25 22:35:08;;;;;;;13.15;4.05;;;15.60;99.90;;;;;;6065085;23;20520;-72
2021/08/25 22:37:34;;;;;;;11.93;3.85;;;15.60;99.90;;;;;;6063566;23;20406;-72
2021/08/25 22:39:59;;;;;;;13.50;4.18;;;15.60;99.90;;;;;;6089556;23;20028;-72
2021/08/25 22:42:25;;;;;;;13.80;3.92;;;15.60;99.90;;;;;;6063019;23;20069;-71
2021/08/25 22:44:51;;;;;;;11.65;3.58;;;15.50;99.90;;;;;;6087798;23;20022;-72
2021/08/25 22:47:19;;;;;;;12.20;4.82;;;15.50;99.90;;;;;;6064337;23;20022;-71
2021/08/25 22:49:45;;;;;;;12.88;4.50;;;15.50;99.90;;;;;;6088951;23;20022;-72
2021/08/25 22:52:11;;;;;;;11.98;3.83;;;15.50;99.90;;;;;;6064748;23;20107;-71
2021/08/25 22:54:37;;;;;;;12.77;4.38;;;15.50;99.90;;;;;;6088501;23;20061;-72
2021/08/25 22:57:02;;;;;;;15.27;4.75;;;15.50;99.90;;;;;;6088562;23;20030;-72
2021/08/25 22:59:28;;;;;;;12.40;4.78;;;15.40;99.90;;;;;;6064669;23;20026;-72
2021/08/25 23:01:54;;;;;;;13.77;4.85;;;15.40;99.90;;;;;;6062108;23;20502;-72
2021/08/25 23:04:20;;;;;;;18.67;5.10;;;15.40;99.90;;;;;;6088882;23;20026;-72
2021/08/25 23:06:46;;;;;;;12.85;4.28;;;15.30;99.90;;;;;;6086613;23;20022;-72
2021/08/25 23:09:11;;;;;;;16.15;5.00;;;15.30;99.90;;;;;;6087973;23;20101;-71
2021/08/25 23:11:37;;;;;;;18.58;5.30;;;15.30;99.90;;;;;;6087067;23;20343;-72
2021/08/25 23:14:06;;;;;;;16.05;5.00;;;15.30;99.90;;;;;;6064220;23;20029;-71
2021/08/25 23:16:31;;;;;;;21.83;5.65;;;15.30;99.90;;;;;;6063878;23;20080;-71
2021/08/25 23:18:57;;;;;;;19.85;5.95;;;15.30;99.90;;;;;;6087500;23;20449;-72
2021/08/25 23:21:23;;;;;;;18.30;5.10;;;15.20;99.90;;;;;;6089219;23;20028;-73
2021/08/25 23:23:49;;;;;;;19.17;4.80;;;15.30;99.90;;;;;;6086531;23;20022;-72
2021/08/25 23:26:14;;;;;;;19.27;5.05;;;15.30;99.90;;;;;;6064900;23;20176;-71
2021/08/25 23:28:40;;;;;;;15.88;4.60;;;15.30;99.90;;;;;;6087320;23;20026;-72
2021/08/25 23:31:10;;;;;;;19.63;5.00;;;15.20;99.90;;;;;;6087289;23;20025;-72
2021/08/25 23:33:40;;;;;;;18.77;5.13;;;15.20;99.90;;;;;;6084491;23;20087;-72
2021/08/25 23:36:05;;;;;;;17.42;5.30;;;15.20;99.90;;;;;;6060895;23;20699;-74
2021/08/25 23:38:33;;;;;;;24.05;6.40;;;15.10;99.90;;;;;;6063595;23;20022;-74
2021/08/25 23:41:01;;;;;;;21.50;5.18;;;15.10;99.90;;;;;;6063746;23;20022;-72
2021/08/25 23:43:27;;;;;;;15.25;4.90;;;15.10;99.90;;;;;;6063734;23;20073;-74
2021/08/25 23:45:53;;;;;;;20.77;4.85;;;15.10;99.90;;;;;;6061800;23;20026;-74
2021/08/25 23:48:19;;;;;;;19.75;4.90;;;15.10;99.90;;;;;;6087543;23;20026;-71
2021/08/25 23:50:47;;;;;;;20.67;4.90;;;15.10;99.90;;;;;;6063290;23;20076;-73
2021/08/25 23:53:13;;;;;;;18.60;5.18;;;15.00;99.90;;;;;;6087072;23;20026;-73
2021/08/25 23:55:38;;;;;;;17.77;4.60;;;15.00;99.90;;;;;;6088513;23;20029;-74
2021/08/25 23:58:04;;;;;;;17.58;5.43;;;15.00;99.90;;;;;;6064110;23;20387;-74
